Time;durP1;ratioP1;P1;durP2;ratioP2;P2;SDS_P1;SDS_P2;PMS_P1;PMS_P2;Temp;Humidity;BMP_temperature;BMP_pressure;BME280_temperature;BME280_humidity;BME280_pressure;Samples;Min_cycle;Max_cycle;Signal;HPM_P1;HPM_P2
2023/06/04 00:01:01;;;;;;;1999.90;999.90;;;;;;;14.61;100.00;95283.78;5065759;28;20232;-54
2023/06/04 00:03:26;;;;;;;1999.90;999.90;;;;;;;14.60;100.00;95277.50;5065402;28;20204;-54
2023/06/04 00:05:51;;;;;;;1999.90;999.90;;;;;;;14.57;100.00;95278.34;5065533;28;20197;-52
2023/06/04 00:08:17;;;;;;;1999.90;999.90;;;;;;;14.55;100.00;95286.25;5048777;28;20269;-55
2023/06/04 00:10:42;;;;;;;1999.90;999.90;;;;;;;14.48;100.00;95300.19;5065096;28;20217;-53
2023/06/04 00:13:07;;;;;;;1999.90;999.90;;;;;;;14.48;100.00;95280.94;5048559;28;20291;-55
2023/06/04 00:15:33;;;;;;;1999.90;999.90;;;;;;;14.43;100.00;95284.22;5048334;28;20196;-55
2023/06/04 00:17:58;;;;;;;1999.90;999.90;;;;;;;14.47;100.00;95287.66;5048486;28;20212;-53
2023/06/04 00:20:24;;;;;;;1999.90;999.90;;;;;;;14.45;100.00;95276.31;5064827;28;20273;-54
2023/06/04 00:22:49;;;;;;;1999.90;999.90;;;;;;;14.36;100.00;95270.66;5065132;28;20193;-55
2023/06/04 00:25:15;;;;;;;1999.90;999.90;;;;;;;14.34;100.00;95267.56;5065021;28;20205;-55
2023/06/04 00:27:40;;;;;;;1999.90;999.90;;;;;;;14.33;100.00;95262.47;5064680;28;20189;-55
2023/06/04 00:30:06;;;;;;;1999.90;999.90;;;;;;;14.29;100.00;95268.09;5065293;28;20162;-54
2023/06/04 00:32:31;;;;;;;1999.90;999.90;;;;;;;14.29;100.00;95262.59;5065240;28;20193;-55
2023/06/04 00:35:01;;;;;;;1999.90;999.90;;;;;;;14.33;100.00;95262.47;5064713;28;20193;-55
2023/06/04 00:37:28;;;;;;;1999.90;999.90;;;;;;;14.29;100.00;95273.56;5064996;28;20209;-55
2023/06/04 00:39:53;;;;;;;1999.90;999.90;;;;;;;14.25;100.00;95270.16;5064492;28;20189;-55
2023/06/04 00:42:19;;;;;;;1999.90;999.90;;;;;;;14.25;100.00;95267.41;5064521;28;20236;-55
2023/06/04 00:44:45;;;;;;;1999.90;999.90;;;;;;;14.19;100.00;95274.56;5064322;28;20236;-56
2023/06/04 00:47:15;;;;;;;1999.90;999.90;;;;;;;14.18;100.00;95275.78;5047881;28;20232;-55
2023/06/04 00:49:41;;;;;;;1999.90;999.90;;;;;;;14.12;100.00;95269.25;5064569;28;20201;-56
2023/06/04 00:52:08;;;;;;;1999.90;999.90;;;;;;;14.08;100.00;95265.03;5064279;28;20190;-56
2023/06/04 00:54:35;;;;;;;1999.90;999.90;;;;;;;14.04;100.00;95267.88;5064325;28;20260;-57
2023/06/04 00:57:00;;;;;;;1999.90;999.90;;;;;;;13.98;100.00;95266.81;5064139;28;20205;-55
2023/06/04 00:59:26;;;;;;;1999.90;999.90;;;;;;;13.93;100.00;95261.84;5064948;28;20194;-56
2023/06/04 01:02:02;;;;;;;1999.90;999.90;;;;;;;13.95;100.00;95270.41;5064400;28;20213;-55
2023/06/04 01:04:33;;;;;;;1999.90;999.90;;;;;;;13.93;100.00;95278.31;5064350;28;20197;-55
2023/06/04 01:07:02;;;;;;;1999.90;999.90;;;;;;;13.92;100.00;95278.75;5064760;28;20190;-53
2023/06/04 01:09:28;;;;;;;1999.90;999.90;;;;;;;13.90;100.00;95275.66;5064118;28;20225;-55
2023/06/04 01:11:54;;;;;;;1999.90;999.90;;;;;;;13.81;100.00;95275.47;5047706;28;20193;-56
2023/06/04 01:14:19;;;;;;;1999.90;999.90;;;;;;;13.69;100.00;95285.13;5047316;28;20193;-55
2023/06/04 01:17:02;;;;;;;1999.90;999.90;;;;;;;13.68;100.00;95283.59;5064030;28;20227;-55
2023/06/04 01:19:59;;;;;;;1999.90;999.90;;;;;;;13.58;100.00;95287.34;5047664;28;20284;-56
2023/06/04 01:23:01;;;;;;;1999.90;999.90;;;;;;;13.50;100.00;95277.72;5047073;28;20212;-55
2023/06/04 01:25:34;;;;;;;1999.90;999.90;;;;;;;13.43;100.00;95283.34;5047596;28;20197;-54
2023/06/04 01:28:03;;;;;;;1999.90;999.90;;;;;;;13.45;100.00;95286.44;5047650;28;20201;-55
2023/06/04 01:30:31;;;;;;;1999.90;999.90;;;;;;;13.33;100.00;95284.34;5063591;28;20217;-54
2023/06/04 01:32:58;;;;;;;1999.90;999.90;;;;;;;13.29;100.00;95283.63;5063831;28;20204;-55
2023/06/04 01:35:23;;;;;;;1999.90;999.90;;;;;;;13.22;100.00;95284.56;5064099;28;20169;-55
2023/06/04 01:37:51;;;;;;;1999.90;999.90;;;;;;;13.19;100.00;95284.66;5046982;28;20193;-57
2023/06/04 01:40:16;;;;;;;1999.90;999.90;;;;;;;13.18;100.00;95291.31;5063679;28;20256;-56
2023/06/04 01:42:42;;;;;;;1999.90;999.90;;;;;;;13.11;100.00;95283.22;5047451;28;20197;-55
2023/06/04 01:45:08;;;;;;;1999.90;999.90;;;;;;;13.02;100.00;95291.25;5047164;28;20308;-55
2023/06/04 01:47:34;;;;;;;1999.90;999.90;;;;;;;13.00;100.00;95299.09;5063613;28;20204;-52
2023/06/04 01:50:01;;;;;;;1999.90;999.90;;;;;;;12.91;100.00;95296.13;5046603;28;20231;-54
2023/06/04 01:52:26;;;;;;;1999.90;999.90;;;;;;;12.85;100.00;95289.56;5046958;28;20197;-54
2023/06/04 01:54:52;;;;;;;1999.90;999.90;;;;;;;12.81;100.00;95297.09;5046784;28;20204;-53
2023/06/04 01:57:19;;;;;;;1999.90;999.90;;;;;;;12.74;100.00;95297.22;5064719;28;20204;-54
2023/06/04 01:59:44;;;;;;;1999.90;999.90;;;;;;;12.78;100.00;95300.66;5067692;28;20212;-53
2023/06/04 02:02:10;;;;;;;1999.90;999.90;;;;;;;12.77;100.00;95299.13;5067360;28;20214;-58
2023/06/04 02:04:36;;;;;;;1999.90;999.90;;;;;;;12.78;100.00;95301.44;5051064;28;20275;-54
2023/06/04 02:07:02;;;;;;;1999.90;999.90;;;;;;;12.84;100.00;95296.25;5067406;28;20202;-54
2023/06/04 02:09:27;;;;;;;1999.90;999.90;;;;;;;12.83;100.00;95302.94;5067654;28;20227;-54
2023/06/04 02:11:52;;;;;;;1999.90;999.90;;;;;;;12.80;100.00;95304.56;5051038;28;20279;-54
2023/06/04 02:14:18;;;;;;;1999.90;999.90;;;;;;;12.85;100.00;95303.28;5067303;28;20260;-55
2023/06/04 02:16:43;;;;;;;1999.90;999.90;;;;;;;12.85;100.00;95297.78;5050664;28;20223;-54
2023/06/04 02:19:08;;;;;;;1999.90;999.90;;;;;;;12.84;100.00;95290.78;5067298;28;20197;-58
2023/06/04 02:21:35;;;;;;;1999.90;999.90;;;;;;;12.80;100.00;95301.03;5067407;28;20274;-54
2023/06/04 02:24:00;;;;;;;1999.90;999.90;;;;;;;12.76;100.00;95295.59;5067273;28;20204;-55
2023/06/04 02:26:26;;;;;;;1999.90;999.90;;;;;;;12.70;100.00;95304.72;5067028;28;20268;-56
2023/06/04 02:28:51;;;;;;;1999.90;999.90;;;;;;;12.67;100.00;95297.34;5066968;28;20201;-56
2023/06/04 02:31:17;;;;;;;1999.90;999.90;;;;;;;12.61;100.00;95290.81;5050816;28;20243;-55
2023/06/04 02:33:43;;;;;;;1999.90;999.90;;;;;;;12.59;100.00;95304.91;5066761;28;20194;-56
2023/06/04 02:36:08;;;;;;;1999.90;999.90;;;;;;;12.57;100.00;95298.31;5067199;28;20182;-55
2023/06/04 02:38:34;;;;;;;1999.90;999.90;;;;;;;12.52;100.00;95301.50;5067389;28;20217;-54
2023/06/04 02:41:00;;;;;;;1999.90;999.90;;;;;;;12.48;100.00;95307.06;5067250;28;20300;-55
2023/06/04 02:43:25;;;;;;;1999.90;999.90;;;;;;;12.43;100.00;95304.78;5050275;28;20202;-54
2023/06/04 02:45:50;;;;;;;1999.90;999.90;;;;;;;12.43;100.00;95304.03;5067190;28;20221;-54
2023/06/04 02:48:16;;;;;;;1999.90;999.90;;;;;;;12.38;100.00;95312.72;5066950;28;20205;-54
2023/06/04 02:50:42;;;;;;;1999.90;999.90;;;;;;;12.33;100.00;95310.44;5049916;28;20237;-54
2023/06/04 02:53:07;;;;;;;1999.90;999.90;;;;;;;12.30;100.00;95301.13;5066894;28;20208;-53
2023/06/04 02:55:33;;;;;;;1999.90;999.90;;;;;;;12.30;100.00;95301.13;5050049;28;20197;-54
2023/06/04 02:58:00;;;;;;;1999.90;999.90;;;;;;;12.26;100.00;95300.41;5066506;28;20202;-55
2023/06/04 03:00:26;;;;;;;1999.90;999.90;;;;;;;12.26;100.00;95300.41;5066594;28;20198;-57
2023/06/04 03:02:51;;;;;;;1999.90;999.90;;;;;;;12.26;100.00;95305.09;5049968;28;20210;-57
2023/06/04 03:05:17;;;;;;;1999.90;999.90;;;;;;;12.22;100.00;95305.16;5049741;28;20181;-57
2023/06/04 03:07:44;;;;;;;1999.90;999.90;;;;;;;12.20;100.00;95314.97;5050156;28;20211;-54
2023/06/04 03:10:11;;;;;;;1999.90;999.90;;;;;;;12.16;100.00;95316.97;5064895;28;20280;-56
2023/06/04 03:12:37;;;;;;;1999.90;999.90;;;;;;;12.13;100.00;95301.41;5066655;28;20229;-56
2023/06/04 03:15:03;;;;;;;1999.90;999.90;;;;;;;12.11;100.00;95298.28;5049640;28;20372;-56
2023/06/04 03:17:28;;;;;;;1999.90;999.90;;;;;;;12.07;100.00;95314.00;5065910;28;20204;-56
2023/06/04 03:19:55;;;;;;;1999.90;999.90;;;;;;;12.07;100.00;95314.00;5066141;28;20228;-54
2023/06/04 03:22:21;;;;;;;1999.90;999.90;;;;;;;12.04;100.00;95325.78;5049342;28;20279;-55
2023/06/04 03:24:47;;;;;;;1999.90;999.90;;;;;;;12.06;100.00;95317.94;5066140;28;20197;-55
2023/06/04 03:27:12;;;;;;;1999.90;999.90;;;;;;;12.07;100.00;95320.25;5049407;28;20197;-55
2023/06/04 03:29:38;;;;;;;1999.90;999.90;;;;;;;12.08;100.00;95315.53;5065885;28;20228;-55
2023/06/04 03:32:03;;;;;;;1999.90;999.90;;;;;;;12.14;100.00;95320.16;5049333;28;20213;-53
2023/06/04 03:34:32;;;;;;;1999.90;999.90;;;;;;;12.27;100.00;95332.06;5065658;28;20200;-54
2023/06/04 03:36:57;;;;;;;1999.90;999.90;;;;;;;12.41;100.00;95331.03;5049580;28;20201;-54
2023/06/04 03:39:23;;;;;;;1999.90;999.90;;;;;;;12.59;100.00;95328.78;5065634;28;20193;-55
2023/06/04 03:41:48;;;;;;;1999.90;999.90;;;;;;;12.76;100.00;95333.97;5065774;28;20217;-56
2023/06/04 03:44:15;;;;;;;1999.90;999.90;;;;;;;13.00;100.00;95342.97;5049514;28;20197;-56
2023/06/04 03:46:41;;;;;;;1999.90;999.90;;;;;;;13.29;100.00;95342.03;5065804;28;20247;-56
2023/06/04 03:49:06;;;;;;;1999.90;999.90;;;;;;;13.51;100.00;95339.63;5049289;28;20235;-56
2023/06/04 03:51:32;;;;;;;1999.90;999.90;;;;;;;13.73;100.00;95335.22;5065526;28;20217;-53
2023/06/04 03:53:58;;;;;;;1999.90;999.90;;;;;;;13.84;100.00;95341.25;5048886;28;20235;-55
2023/06/04 03:56:24;;;;;;;1999.90;999.90;;;;;;;14.03;100.00;95351.47;5065824;28;20194;-55
2023/06/04 03:58:49;;;;;;;1999.90;999.90;;;;;;;14.27;100.00;95341.13;5048694;28;20193;-54
2023/06/04 04:01:15;;;;;;;1999.90;999.90;;;;;;;14.42;100.00;95351.34;5065219;28;20197;-54
2023/06/04 04:03:42;;;;;;;1999.90;999.90;;;;;;;14.67;100.00;95343.28;5065375;28;20201;-56
2023/06/04 04:06:10;;;;;;;1999.90;999.90;;;;;;;14.83;100.00;95343.25;5049011;28;20178;-56
2023/06/04 04:08:35;;;;;;;1999.90;999.90;;;;;;;14.94;100.00;95341.00;5065664;28;20189;-56
2023/06/04 04:11:01;;;;;;;1999.90;999.90;;;;;;;15.17;100.00;95342.78;5065149;28;20209;-56
2023/06/04 04:13:26;;;;;;;1999.90;999.90;;;;;;;15.44;100.00;95341.25;5064951;28;20198;-57
2023/06/04 04:15:52;;;;;;;1999.90;999.90;;;;;;;14.90;100.00;95345.06;5048790;28;20194;-55
2023/06/04 04:18:19;;;;;;;1999.90;999.90;;;;;;;15.23;100.00;95347.31;5065386;28;20198;-57
2023/06/04 04:20:46;;;;;;;1999.90;999.90;;;;;;;15.98;100.00;95347.56;5064490;28;20194;-55
2023/06/04 04:23:12;;;;;;;1999.90;999.90;;;;;;;16.25;100.00;95345.16;5064990;28;20194;-56
2023/06/04 04:25:38;;;;;;;1999.90;999.90;;;;;;;16.55;100.00;95348.59;5048648;28;20268;-56
2023/06/04 04:28:06;;;;;;;1999.90;999.90;;;;;;;16.68;100.00;95349.38;5065075;28;20235;-56
2023/06/04 04:30:35;;;;;;;1999.90;999.90;;;;;;;16.72;100.00;95352.78;5064687;28;20205;-56
2023/06/04 04:33:05;;;;;;;1999.90;999.90;;;;;;;16.86;100.00;95352.31;5065167;28;20209;-57
2023/06/04 04:35:32;;;;;;;1999.90;999.90;;;;;;;16.64;100.00;95365.25;5048522;28;20202;-56
2023/06/04 04:37:58;;;;;;;1999.90;999.90;;;;;;;17.31;100.00;95355.50;5064426;28;20251;-55
2023/06/04 04:40:23;;;;;;;1999.90;999.90;;;;;;;17.59;100.00;95358.03;5048045;28;20221;-56
2023/06/04 04:42:48;;;;;;;1999.90;999.90;;;;;;;18.43;100.00;95365.94;5047861;28;20232;-57
2023/06/04 04:45:14;;;;;;;1999.90;999.90;;;;;;;18.17;100.00;95363.81;5064393;28;20217;-57
2023/06/04 04:47:39;;;;;;;1999.90;999.90;;;;;;;18.42;100.00;95369.16;5064634;28;20190;-55
2023/06/04 04:50:05;;;;;;;1999.90;999.90;;;;;;;18.50;100.00;95373.97;5047821;28;20201;-56
2023/06/04 04:52:31;;;;;;;1999.90;999.90;;;;;;;18.61;100.00;95377.09;5064487;28;20243;-56
2023/06/04 04:54:57;;;;;;;1999.90;999.90;;;;;;;18.63;100.00;95380.19;5047908;28;20201;-56
2023/06/04 04:57:23;;;;;;;1999.90;999.90;;;;;;;18.94;100.00;95369.06;5064140;28;20190;-55
2023/06/04 04:59:49;;;;;;;1999.90;999.90;;;;;;;19.51;100.00;95376.56;5064405;28;20194;-56
2023/06/04 05:02:15;;;;;;;1999.90;999.90;;;;;;;19.98;100.00;95374.06;5064108;28;20208;-57
2023/06/04 05:04:40;;;;;;;1999.90;999.90;;;;;;;20.03;100.00;95370.66;5064590;28;20186;-56
2023/06/04 05:07:06;;;;;;;1999.90;999.90;;;;;;;20.36;100.00;95379.88;5064388;28;20197;-56
2023/06/04 05:09:31;;;;;;;1999.90;999.90;;;;;;;19.96;100.00;95376.53;5064464;28;20202;-56
2023/06/04 05:11:57;;;;;;;1999.90;999.90;;;;;;;20.37;100.00;95381.44;5064253;28;20221;-54
2023/06/04 05:14:22;;;;;;;1999.90;999.90;;;;;;;20.32;100.00;95384.81;5064488;28;20232;-55
2023/06/04 05:16:48;;;;;;;1999.90;999.90;;;;;;;20.34;100.00;95387.13;5047159;28;20205;-56
2023/06/04 05:19:15;;;;;;;1999.90;999.90;;;;;;;20.55;100.00;95384.16;5064068;28;20220;-55
2023/06/04 05:21:41;;;;;;;1999.90;999.90;;;;;;;21.28;94.80;95385.34;5047367;28;20264;-56
2023/06/04 05:24:07;;;;;;;1999.90;999.90;;;;;;;19.96;100.00;95395.94;5047409;28;20197;-56
2023/06/04 05:26:33;;;;;;;1999.90;999.90;;;;;;;20.98;96.24;95392.00;5063928;28;20193;-56
2023/06/04 05:28:59;;;;;;;1999.90;999.90;;;;;;;21.60;89.86;95390.06;5047664;28;20201;-55
2023/06/04 05:31:26;;;;;;;1999.90;999.90;;;;;;;20.34;93.57;95390.69;5063677;28;20240;-56
2023/06/04 05:33:52;;;;;;;1999.90;999.90;;;;;;;21.12;97.70;95402.41;5063739;28;20249;-54
2023/06/04 05:36:17;;;;;;;1999.90;999.90;;;;;;;21.28;89.85;95393.69;5047473;28;20205;-55
2023/06/04 05:38:43;;;;;;;1999.90;999.90;;;;;;;21.45;84.84;95400.34;5063998;28;20193;-56
2023/06/04 05:41:08;;;;;;;1999.90;999.90;;;;;;;21.80;90.12;95397.81;5047008;28;20208;-54
2023/06/04 05:43:33;;;;;;;1999.90;999.90;;;;;;;22.18;86.70;95400.59;5063635;28;20260;-55
2023/06/04 05:45:59;;;;;;;1999.90;999.90;;;;;;;22.92;81.67;95405.69;5047090;28;20190;-56
2023/06/04 05:48:25;;;;;;;1999.90;999.90;;;;;;;23.26;77.20;95412.53;5063521;28;20213;-57
2023/06/04 05:50:50;;;;;;;1999.90;999.90;;;;;;;22.73;80.27;95409.94;5063496;28;20217;-56
2023/06/04 05:53:16;;;;;;;1999.90;999.90;;;;;;;23.28;73.60;95418.41;5046765;28;20186;-56
2023/06/04 05:55:41;;;;;;;1999.90;999.90;;;;;;;23.11;74.66;95423.69;5063575;28;20204;-56
2023/06/04 05:58:07;;;;;;;1999.90;999.90;;;;;;;22.73;75.97;95426.66;5046845;28;20199;-55
2023/06/04 06:00:32;;;;;;;1999.90;999.90;;;;;;;22.98;74.92;95425.25;5063961;28;20248;-55
2023/06/04 06:02:57;;;;;;;1999.90;999.90;;;;;;;23.49;70.49;95420.72;5063294;28;20201;-55
2023/06/04 06:05:23;;;;;;;1999.90;999.90;;;;;;;23.62;70.86;95432.31;5063281;28;20213;-55
2023/06/04 06:07:49;;;;;;;1999.90;999.90;;;;;;;23.52;71.21;95424.56;5063843;28;20197;-52
2023/06/04 06:10:15;;;;;;;1999.90;999.90;;;;;;;23.43;68.42;95433.06;5063738;28;20206;-55
2023/06/04 06:12:41;;;;;;;1999.90;999.90;;;;;;;23.26;73.10;95418.09;5063899;28;20201;-51
2023/06/04 06:15:06;;;;;;;1999.90;999.90;;;;;;;23.93;68.89;95424.09;5046971;28;20193;-55
2023/06/04 06:17:32;;;;;;;1999.90;999.90;;;;;;;24.23;67.38;95427.50;5063110;28;20224;-54
2023/06/04 06:19:58;;;;;;;1999.90;999.90;;;;;;;23.90;66.63;95432.66;5047023;28;20190;-54
2023/06/04 06:22:23;;;;;;;1999.90;999.90;;;;;;;24.26;67.33;95432.84;5063289;28;20212;-55
2023/06/04 06:24:48;;;;;;;1999.90;999.90;;;;;;;24.39;66.75;95432.47;5063133;28;20197;-55
2023/06/04 06:27:15;;;;;;;1999.90;999.90;;;;;;;23.39;68.21;95438.84;5063179;28;20202;-54
2023/06/04 06:29:41;;;;;;;1999.90;999.90;;;;;;;24.45;66.67;95433.31;5047159;28;20269;-55
2023/06/04 06:32:07;;;;;;;1999.90;999.90;;;;;;;23.76;66.36;95439.84;5063318;28;20221;-54
2023/06/04 06:34:32;;;;;;;1999.90;999.90;;;;;;;24.14;67.38;95447.19;5046263;28;20200;-53
2023/06/04 06:36:58;;;;;;;1999.90;999.90;;;;;;;25.31;60.12;95439.44;5063514;28;20174;-54
2023/06/04 06:39:23;;;;;;;1999.90;999.90;;;;;;;25.25;57.15;95449.81;5063134;28;20193;-54
2023/06/04 06:41:48;;;;;;;1999.90;999.90;;;;;;;25.38;57.42;95452.97;5062958;28;20197;-54
2023/06/04 06:44:14;;;;;;;1999.90;999.90;;;;;;;24.69;57.77;95461.78;5065405;28;20204;-56
2023/06/04 06:46:40;;;;;;;1999.90;999.90;;;;;;;23.91;59.81;95456.53;5066690;28;20229;-53
2023/06/04 06:49:05;;;;;;;1999.90;999.90;;;;;;;24.90;59.29;95454.84;5049899;28;20193;-54
2023/06/04 06:51:30;;;;;;;1999.90;999.90;;;;;;;25.52;54.48;95457.63;5066487;28;20201;-54
2023/06/04 06:53:56;;;;;;;1999.90;999.90;;;;;;;26.07;54.12;95452.34;5066632;28;20197;-56
2023/06/04 06:56:22;;;;;;;1999.90;999.90;;;;;;;24.63;57.78;95456.16;5049976;28;20193;-56
2023/06/04 06:58:47;;;;;;;1999.90;999.90;;;;;;;23.48;65.03;95446.28;5049989;28;20200;-55
2023/06/04 07:01:13;;;;;;;1999.90;999.90;;;;;;;25.91;57.01;95447.44;5050137;28;20224;-55
2023/06/04 07:03:39;;;;;;;1999.90;999.90;;;;;;;25.08;59.83;95440.50;5066395;28;20201;-56
2023/06/04 07:06:05;;;;;;;1999.90;999.90;;;;;;;25.41;59.46;95449.16;5049683;28;20193;-53
2023/06/04 07:08:31;;;;;;;1999.90;999.90;;;;;;;25.38;59.52;95447.38;5066737;28;20240;-58
2023/06/04 07:10:57;;;;;;;1999.90;999.90;;;;;;;25.43;57.29;95452.25;5050015;28;20248;-55
2023/06/04 07:13:22;;;;;;;1999.90;999.90;;;;;;;24.15;62.19;95454.31;5066217;28;20220;-54
2023/06/04 07:15:47;;;;;;;1999.90;999.90;;;;;;;25.36;60.94;95453.44;5049939;28;20216;-58
2023/06/04 07:18:13;;;;;;;1999.90;999.90;;;;;;;26.81;54.49;95441.63;5066693;28;20194;-58
2023/06/04 07:20:38;;;;;;;1999.90;999.90;;;;;;;26.81;54.49;95441.63;5049706;28;20212;-58
2023/06/04 07:23:04;;;;;;;1999.90;999.90;;;;;;;28.16;49.22;95446.09;5065829;28;20304;-58
2023/06/04 07:25:29;;;;;;;1999.90;999.90;;;;;;;27.52;50.15;95443.66;5066402;28;20196;-58
2023/06/04 07:27:57;;;;;;;1999.90;999.90;;;;;;;28.61;47.43;95444.59;5049770;28;20202;-58
2023/06/04 07:30:24;;;;;;;1999.90;999.90;;;;;;;27.58;48.72;95445.22;5065861;28;20213;-58
2023/06/04 07:32:49;;;;;;;1999.90;999.90;;;;;;;28.49;46.89;95445.19;5066016;28;20217;-58
2023/06/04 07:35:15;;;;;;;1999.90;999.90;;;;;;;29.04;45.99;95444.84;5049370;28;20216;-58
2023/06/04 07:37:41;;;;;;;1999.90;999.90;;;;;;;30.14;44.21;95432.50;5065729;28;20181;-58
2023/06/04 07:40:07;;;;;;;1999.90;999.90;;;;;;;29.09;44.56;95435.63;5066156;28;20198;-58
2023/06/04 07:42:32;;;;;;;1999.90;999.90;;;;;;;30.39;43.55;95436.84;5065473;28;20193;-57
2023/06/04 07:44:58;;;;;;;1999.90;999.90;;;;;;;30.39;41.71;95431.97;5049067;28;20194;-58
2023/06/04 07:47:23;;;;;;;1999.90;999.90;;;;;;;30.65;41.75;95437.00;5065546;28;20193;-58
2023/06/04 07:49:49;;;;;;;1999.90;999.90;;;;;;;29.21;45.11;95443.41;5065536;28;20233;-58
2023/06/04 07:52:14;;;;;;;1999.90;999.90;;;;;;;26.84;55.75;95440.63;5065747;28;20205;-57
2023/06/04 07:54:41;;;;;;;1999.90;999.90;;;;;;;28.12;50.48;95448.41;5065295;28;20205;-57
2023/06/04 07:57:07;;;;;;;1999.90;999.90;;;;;;;27.68;52.18;95446.44;5065204;28;20198;-57
2023/06/04 07:59:32;;;;;;;1999.90;999.90;;;;;;;28.73;50.80;95442.50;5048672;28;20267;-58
2023/06/04 08:01:57;;;;;;;1999.90;999.90;;;;;;;28.34;51.21;95445.50;5065419;28;20182;-58
2023/06/04 08:04:23;;;;;;;1999.90;999.90;;;;;;;28.92;48.51;95438.53;5049194;28;20193;-59
2023/06/04 08:06:49;;;;;;;1999.90;999.90;;;;;;;28.43;50.99;95436.03;5049001;28;20213;-59
2023/06/04 08:09:15;;;;;;;1999.90;999.90;;;;;;;29.19;49.06;95434.75;5065592;28;20177;-58
2023/06/04 08:11:44;;;;;;;1999.90;999.90;;;;;;;28.71;48.43;95440.19;5065512;28;20213;-58
2023/06/04 08:14:13;;;;;;;1999.90;999.90;;;;;;;28.27;49.82;95441.16;5065149;28;20198;-58
2023/06/04 08:16:40;;;;;;;1999.90;999.90;;;;;;;29.71;46.51;95437.38;5065479;28;20198;-58
2023/06/04 08:19:06;;;;;;;1999.90;999.90;;;;;;;29.41;45.64;95433.78;5065156;28;20269;-58
2023/06/04 08:21:33;;;;;;;1999.90;999.90;;;;;;;27.78;52.67;95444.13;5048282;28;20247;-59
2023/06/04 08:23:58;;;;;;;1999.90;999.90;;;;;;;29.78;45.22;95434.72;5065359;28;20189;-59
2023/06/04 08:26:25;;;;;;;1999.90;999.90;;;;;;;30.25;43.93;95438.03;5048246;28;20264;-59
2023/06/04 08:28:51;;;;;;;1999.90;999.90;;;;;;;29.72;43.80;95436.06;5048078;28;20291;-58
2023/06/04 08:31:17;;;;;;;1999.90;999.90;;;;;;;29.13;44.35;95441.72;5048253;28;20237;-58
2023/06/04 08:33:44;;;;;;;1999.90;999.90;;;;;;;27.73;46.84;95442.88;5064883;28;20193;-58
2023/06/04 08:36:10;;;;;;;1999.90;999.90;;;;;;;27.13;51.65;95446.47;5064695;28;20251;-59
2023/06/04 08:38:35;;;;;;;1999.90;999.90;;;;;;;26.46;53.10;95450.47;5048036;28;20201;-59
2023/06/04 08:41:15;;;;;;;1999.90;999.90;;;;;;;26.56;52.30;95448.19;5048195;28;20265;-58
2023/06/04 08:43:43;;;;;;;1999.90;999.90;;;;;;;26.07;56.43;95455.16;5064716;28;20205;-58
2023/06/04 08:46:09;;;;;;;1999.90;999.90;;;;;;;26.91;52.33;95446.47;5064373;28;20185;-58
2023/06/04 08:48:35;;;;;;;1999.90;999.90;;;;;;;26.68;53.39;95447.72;5064518;28;20201;-59
2023/06/04 08:51:02;;;;;;;1999.90;999.90;;;;;;;26.76;52.27;95445.97;5064575;28;20209;-58
2023/06/04 08:53:28;;;;;;;1999.90;999.90;;;;;;;28.47;46.90;95442.13;5064143;28;20221;-59
2023/06/04 08:55:53;;;;;;;1999.90;999.90;;;;;;;28.00;47.90;95444.84;5064405;28;20186;-58
2023/06/04 08:58:19;;;;;;;1999.90;999.90;;;;;;;26.82;52.19;95443.16;5064266;28;20193;-58
2023/06/04 09:00:45;;;;;;;1999.90;999.90;;;;;;;28.47;46.49;95454.13;5047449;28;20193;-59
2023/06/04 09:03:12;;;;;;;1999.90;999.90;;;;;;;28.64;47.41;95446.38;5063928;28;20193;-58
2023/06/04 09:05:39;;;;;;;1999.90;999.90;;;;;;;28.90;45.52;95448.75;5047627;28;20201;-58
2023/06/04 09:08:06;;;;;;;1999.90;999.90;;;;;;;29.12;45.09;95442.97;5063062;28;20190;-59
2023/06/04 09:10:33;;;;;;;1999.90;999.90;;;;;;;29.09;43.82;95446.88;5064333;28;20205;-59
2023/06/04 09:13:03;;;;;;;1999.90;999.90;;;;;;;27.67;49.98;95444.91;5064018;28;20268;-58
2023/06/04 09:15:28;;;;;;;1999.90;999.90;;;;;;;29.46;46.24;95438.59;5064495;28;20197;-58
2023/06/04 09:17:53;;;;;;;1999.90;999.90;;;;;;;29.28;44.36;95447.72;5063879;28;20189;-58
2023/06/04 09:20:23;;;;;;;1999.90;999.90;;;;;;;28.24;46.98;95447.84;5063845;28;20200;-58
2023/06/04 09:22:49;;;;;;;1999.90;999.90;;;;;;;27.84;49.89;95445.69;5063812;28;20273;-58
2023/06/04 09:25:24;;;;;;;1999.90;999.90;;;;;;;27.53;49.42;95445.22;5063905;28;20185;-57
2023/06/04 09:27:49;;;;;;;1999.90;999.90;;;;;;;28.04;46.86;95442.53;5063681;28;20189;-59
2023/06/04 09:30:16;;;;;;;1999.90;999.90;;;;;;;29.01;44.93;95448.66;5047583;28;20193;-57
2023/06/04 09:32:41;;;;;;;1999.90;999.90;;;;;;;29.06;45.08;95447.91;5047431;28;20189;-58
2023/06/04 09:35:15;;;;;;;1999.90;999.90;;;;;;;28.67;45.42;95453.00;5063814;28;20300;-58
2023/06/04 09:37:41;;;;;;;1999.90;999.90;;;;;;;27.25;48.88;95448.06;5063833;28;20193;-58
2023/06/04 09:40:08;;;;;;;1999.90;999.90;;;;;;;28.53;46.17;95442.84;5063616;28;20193;-58
2023/06/04 09:42:54;;;;;;;1999.90;999.90;;;;;;;27.26;49.72;95426.38;5047050;28;20190;-58
2023/06/04 09:45:46;;;;;;;1999.90;999.90;;;;;;;27.70;49.72;95438.28;5064414;28;20200;-57
2023/06/04 09:48:19;;;;;;;1999.90;999.90;;;;;;;27.84;46.96;95431.66;5042590;28;20188;-58
2023/06/04 09:50:46;;;;;;;1999.90;999.90;;;;;;;28.59;44.41;95432.34;5063663;28;20212;-57
2023/06/04 09:53:17;;;;;;;1999.90;999.90;;;;;;;29.90;41.99;95426.91;5063823;28;20224;-57
2023/06/04 09:55:43;;;;;;;1999.90;999.90;;;;;;;29.60;41.25;95429.03;5046986;28;20231;-58
2023/06/04 09:58:11;;;;;;;1999.90;999.90;;;;;;;30.35;40.07;95427.91;5063416;28;20214;-57
2023/06/04 10:00:37;;;;;;;1999.90;999.90;;;;;;;28.37;43.38;95441.66;5063465;28;20204;-58
2023/06/04 10:03:03;;;;;;;1999.90;999.90;;;;;;;28.84;42.28;95437.53;5063260;28;20201;-57
2023/06/04 10:05:32;;;;;;;1999.90;999.90;;;;;;;27.84;44.87;95434.44;5046820;28;20196;-57
2023/06/04 10:08:03;;;;;;;1999.90;999.90;;;;;;;27.37;43.88;95443.97;5063069;28;20268;-58
2023/06/04 10:10:28;;;;;;;1999.90;999.90;;;;;;;27.75;44.82;95429.06;5063294;28;20208;-57
2023/06/04 10:13:02;;;;;;;1999.90;999.90;;;;;;;27.12;48.05;95416.91;5063178;28;20213;-58
2023/06/04 10:15:28;;;;;;;1999.90;999.90;;;;;;;28.57;44.92;95423.66;5063625;28;20194;-57
2023/06/04 10:17:54;;;;;;;1999.90;999.90;;;;;;;28.14;42.74;95431.78;5046883;28;20200;-58
2023/06/04 10:20:21;;;;;;;1999.90;999.90;;;;;;;26.40;47.32;95424.44;5066985;28;20194;-57
2023/06/04 10:22:47;;;;;;;1999.90;999.90;;;;;;;27.58;46.46;95431.19;5067148;28;20269;-58
2023/06/04 10:25:15;;;;;;;1999.90;999.90;;;;;;;27.09;46.91;95429.16;5067193;28;20311;-58
2023/06/04 10:27:40;;;;;;;1999.90;999.90;;;;;;;26.47;47.94;95429.56;5067279;28;20198;-58
2023/06/04 10:30:06;;;;;;;1999.90;999.90;;;;;;;27.45;45.73;95436.53;5066908;28;20216;-57
2023/06/04 10:32:32;;;;;;;1999.90;999.90;;;;;;;28.18;44.23;95433.03;5050104;28;20189;-58
2023/06/04 10:34:57;;;;;;;1999.90;999.90;;;;;;;28.15;44.84;95436.88;5067086;28;20296;-58
2023/06/04 10:37:25;;;;;;;1999.90;999.90;;;;;;;29.34;40.96;95425.91;5067181;28;20189;-58
2023/06/04 10:39:55;;;;;;;1999.90;999.90;;;;;;;27.99;44.51;95432.09;5050278;28;20185;-59
2023/06/04 10:42:22;;;;;;;1999.90;999.90;;;;;;;28.86;43.73;95422.94;5067304;28;20241;-58
2023/06/04 10:44:52;;;;;;;1999.90;999.90;;;;;;;27.25;46.07;95436.84;5067143;28;20257;-58
2023/06/04 10:47:30;;;;;;;1999.90;999.90;;;;;;;27.65;44.20;95436.25;5066716;28;20221;-58